sensor_id;sensor_type;location;lat;lon;timestamp;pressure;altitude;pressure_sealevel;temperature;humidity
66880;BME280;53789;51.392;10.234;2023-02-18T00:00:01;98639.50;;;6.29;83.75
66880;BME280;53789;51.392;10.234;2023-02-18T00:00:22;98648.75;;;6.28;82.97
66880;BME280;53789;51.392;10.234;2023-02-18T00:00:42;98643.84;;;6.30;82.92
66880;BME280;53789;51.392;10.234;2023-02-18T00:01:10;98647.94;;;6.27;83.59
66880;BME280;53789;51.392;10.234;2023-02-18T00:01:32;98648.75;;;6.28;83.32
66880;BME280;53789;51.392;10.234;2023-02-18T00:01:53;98649.84;;;6.27;83.63
66880;BME280;53789;51.392;10.234;2023-02-18T00:02:13;98646.84;;;6.28;83.52
66880;BME280;53789;51.392;10.234;2023-02-18T00:02:34;98634.56;;;6.26;83.68
66880;BME280;53789;51.392;10.234;2023-02-18T00:02:54;98638.91;;;6.27;84.22
66880;BME280;53789;51.392;10.234;2023-02-18T00:03:14;98640.03;;;6.26;83.15
66880;BME280;53789;51.392;10.234;2023-02-18T00:03:35;98646.03;;;6.28;83.99
66880;BME280;53789;51.392;10.234;2023-02-18T00:03:57;98634.84;;;6.24;82.89
66880;BME280;53789;51.392;10.234;2023-02-18T00:04:18;98641.09;;;6.25;83.49
66880;BME280;53789;51.392;10.234;2023-02-18T00:04:38;98643.31;;;6.28;83.25
66880;BME280;53789;51.392;10.234;2023-02-18T00:04:59;98649.84;;;6.27;83.88
66880;BME280;53789;51.392;10.234;2023-02-18T00:05:19;98649.84;;;6.27;83.30
66880;BME280;53789;51.392;10.234;2023-02-18T00:05:39;98645.50;;;6.26;84.27
66880;BME280;53789;51.392;10.234;2023-02-18T00:06:00;98641.66;;;6.27;83.42
66880;BME280;53789;51.392;10.234;2023-02-18T00:06:29;98648.75;;;6.28;83.57
66880;BME280;53789;51.392;10.234;2023-02-18T00:06:49;98645.50;;;6.26;83.45
66880;BME280;53789;51.392;10.234;2023-02-18T00:07:10;98640.03;;;6.26;83.51
66880;BME280;53789;51.392;10.234;2023-02-18T00:07:37;98637.03;;;6.27;83.50
66880;BME280;53789;51.392;10.234;2023-02-18T00:07:58;98640.03;;;6.26;83.30
66880;BME280;53789;51.392;10.234;2023-02-18T00:08:20;98647.94;;;6.27;83.36
66880;BME280;53789;51.392;10.234;2023-02-18T00:08:42;98636.19;;;6.27;83.66
66880;BME280;53789;51.392;10.234;2023-02-18T00:09:04;98637.31;;;6.26;83.25
66880;BME280;53789;51.392;10.234;2023-02-18T00:09:25;98634.84;;;6.24;83.05
66880;BME280;53789;51.392;10.234;2023-02-18T00:09:45;98637.56;;;6.24;83.63
66880;BME280;53789;51.392;10.234;2023-02-18T00:10:09;98640.03;;;6.26;83.19
66880;BME280;53789;51.392;10.234;2023-02-18T00:10:30;98633.72;;;6.25;83.90
66880;BME280;53789;51.392;10.234;2023-02-18T00:10:50;98636.72;;;6.24;83.71
66880;BME280;53789;51.392;10.234;2023-02-18T00:11:11;98636.47;;;6.25;83.42
66880;BME280;53789;51.392;10.234;2023-02-18T00:11:34;98636.72;;;6.24;83.05
66880;BME280;53789;51.392;10.234;2023-02-18T00:11:54;98635.66;;;6.25;83.64
66880;BME280;53789;51.392;10.234;2023-02-18T00:12:14;98639.19;;;6.25;83.54
66880;BME280;53789;51.392;10.234;2023-02-18T00:12:35;98634.56;;;6.26;83.18
66880;BME280;53789;51.392;10.234;2023-02-18T00:12:55;98634.56;;;6.26;83.05
66880;BME280;53789;51.392;10.234;2023-02-18T00:13:16;98628.25;;;6.25;83.13
66880;BME280;53789;51.392;10.234;2023-02-18T00:13:36;98634.56;;;6.26;83.30
66880;BME280;53789;51.392;10.234;2023-02-18T00:13:59;98634.56;;;6.26;83.41
66880;BME280;53789;51.392;10.234;2023-02-18T00:14:19;98637.56;;;6.24;83.68
66880;BME280;53789;51.392;10.234;2023-02-18T00:14:40;98630.19;;;6.25;84.17
66880;BME280;53789;51.392;10.234;2023-02-18T00:15:00;98635.38;;;6.26;83.49
66880;BME280;53789;51.392;10.234;2023-02-18T00:15:20;98639.75;;;6.27;83.69
66880;BME280;53789;51.392;10.234;2023-02-18T00:15:40;98635.09;;;6.28;83.38
66880;BME280;53789;51.392;10.234;2023-02-18T00:16:02;98636.19;;;6.27;83.34
66880;BME280;53789;51.392;10.234;2023-02-18T00:16:24;98640.84;;;6.26;83.10
66880;BME280;53789;51.392;10.234;2023-02-18T00:16:45;98641.66;;;6.27;83.63
66880;BME280;53789;51.392;10.234;2023-02-18T00:17:05;98632.66;;;6.26;83.40
66880;BME280;53789;51.392;10.234;2023-02-18T00:17:27;98631.00;;;6.25;83.48
66880;BME280;53789;51.392;10.234;2023-02-18T00:17:48;98638.38;;;6.25;82.96
66880;BME280;53789;51.392;10.234;2023-02-18T00:18:08;98636.47;;;6.25;83.52
66880;BME280;53789;51.392;10.234;2023-02-18T00:18:28;98640.03;;;6.26;82.88
66880;BME280;53789;51.392;10.234;2023-02-18T00:18:49;98631.84;;;6.26;82.95
66880;BME280;53789;51.392;10.234;2023-02-18T00:19:13;98634.56;;;6.26;82.91
66880;BME280;53789;51.392;10.234;2023-02-18T00:19:34;98641.66;;;6.27;83.61
66880;BME280;53789;51.392;10.234;2023-02-18T00:19:54;98632.66;;;6.26;83.31
66880;BME280;53789;51.392;10.234;2023-02-18T00:20:14;98635.38;;;6.26;83.54
66880;BME280;53789;51.392;10.234;2023-02-18T00:20:38;98640.84;;;6.26;83.68
66880;BME280;53789;51.392;10.234;2023-02-18T00:20:58;98638.09;;;6.26;83.49
66880;BME280;53789;51.392;10.234;2023-02-18T00:21:19;98640.56;;;6.28;83.13
66880;BME280;53789;51.392;10.234;2023-02-18T00:21:40;98634.28;;;6.27;83.00
66880;BME280;53789;51.392;10.234;2023-02-18T00:22:00;98637.31;;;6.26;83.08
66880;BME280;53789;51.392;10.234;2023-02-18T00:22:20;98643.56;;;6.26;83.11
66880;BME280;53789;51.392;10.234;2023-02-18T00:22:40;98637.31;;;6.26;83.40
66880;BME280;53789;51.392;10.234;2023-02-18T00:23:02;98630.19;;;6.25;83.28
66880;BME280;53789;51.392;10.234;2023-02-18T00:23:22;98636.47;;;6.25;83.16
66880;BME280;53789;51.392;10.234;2023-02-18T00:23:43;98634.56;;;6.26;83.50
66880;BME280;53789;51.392;10.234;2023-02-18T00:24:05;98641.09;;;6.25;83.15
66880;BME280;53789;51.392;10.234;2023-02-18T00:24:26;98639.19;;;6.25;82.78
66880;BME280;53789;51.392;10.234;2023-02-18T00:24:46;98632.91;;;6.25;83.34
66880;BME280;53789;51.392;10.234;2023-02-18T00:25:07;98635.91;;;6.23;83.37
66880;BME280;53789;51.392;10.234;2023-02-18T00:25:28;98633.19;;;6.23;83.09
66880;BME280;53789;51.392;10.234;2023-02-18T00:25:48;98638.66;;;6.23;82.75
66880;BME280;53789;51.392;10.234;2023-02-18T00:26:11;98638.38;;;6.25;83.18
66880;BME280;53789;51.392;10.234;2023-02-18T00:26:34;98632.09;;;6.24;83.00
66880;BME280;53789;51.392;10.234;2023-02-18T00:26:54;98637.56;;;6.24;83.14
66880;BME280;53789;51.392;10.234;2023-02-18T00:27:16;98640.56;;;6.23;82.94
66880;BME280;53789;51.392;10.234;2023-02-18T00:27:36;98630.44;;;6.23;83.41
66880;BME280;53789;51.392;10.234;2023-02-18T00:27:56;98636.72;;;6.24;82.88
66880;BME280;53789;51.392;10.234;2023-02-18T00:28:17;98637.56;;;6.24;83.05
66880;BME280;53789;51.392;10.234;2023-02-18T00:28:38;98628.81;;;6.22;82.99
66880;BME280;53789;51.392;10.234;2023-02-18T00:28:58;98633.44;;;6.21;83.22
66880;BME280;53789;51.392;10.234;2023-02-18T00:29:19;98635.09;;;6.23;82.70
66880;BME280;53789;51.392;10.234;2023-02-18T00:29:39;98632.38;;;6.23;82.45
66880;BME280;53789;51.392;10.234;2023-02-18T00:30:00;98631.25;;;6.24;82.73
66880;BME280;53789;51.392;10.234;2023-02-18T00:30:20;98625.00;;;6.23;83.42
66880;BME280;53789;51.392;10.234;2023-02-18T00:30:42;98636.47;;;6.25;83.73
66880;BME280;53789;51.392;10.234;2023-02-18T00:31:14;98627.44;;;6.25;82.85
66880;BME280;53789;51.392;10.234;2023-02-18T00:31:36;98626.91;;;6.23;83.21
66880;BME280;53789;51.392;10.234;2023-02-18T00:31:56;98633.19;;;6.23;83.11
66880;BME280;53789;51.392;10.234;2023-02-18T00:32:16;98632.38;;;6.23;82.99
66880;BME280;53789;51.392;10.234;2023-02-18T00:32:36;98626.34;;;6.20;82.66
66880;BME280;53789;51.392;10.234;2023-02-18T00:32:57;98622.53;;;6.21;82.73
66880;BME280;53789;51.392;10.234;2023-02-18T00:33:17;98628.81;;;6.22;82.70
66880;BME280;53789;51.392;10.234;2023-02-18T00:33:38;98623.59;;;6.20;83.08
66880;BME280;53789;51.392;10.234;2023-02-18T00:33:59;98622.53;;;6.21;82.38
66880;BME280;53789;51.392;10.234;2023-02-18T00:34:19;98621.44;;;6.23;82.79
66880;BME280;53789;51.392;10.234;2023-02-18T00:34:39;98627.19;;;6.21;83.23
66880;BME280;53789;51.392;10.234;2023-02-18T00:34:59;98626.06;;;6.22;83.18
66880;BME280;53789;51.392;10.234;2023-02-18T00:35:20;98626.91;;;6.23;82.95
66880;BME280;53789;51.392;10.234;2023-02-18T00:35:40;98624.19;;;6.23;82.84
66880;BME280;53789;51.392;10.234;2023-02-18T00:36:03;98632.09;;;6.24;82.69
66880;BME280;53789;51.392;10.234;2023-02-18T00:36:25;98620.34;;;6.24;83.21
66880;BME280;53789;51.392;10.234;2023-02-18T00:36:45;98622.25;;;6.23;82.69
66880;BME280;53789;51.392;10.234;2023-02-18T00:37:05;98619.53;;;6.23;82.62
66880;BME280;53789;51.392;10.234;2023-02-18T00:37:26;98621.19;;;6.24;82.89
66880;BME280;53789;51.392;10.234;2023-02-18T00:37:46;98619.25;;;6.25;82.69
66880;BME280;53789;51.392;10.234;2023-02-18T00:38:06;98621.72;;;6.26;83.23
66880;BME280;53789;51.392;10.234;2023-02-18T00:38:27;98623.63;;;6.26;83.06
66880;BME280;53789;51.392;10.234;2023-02-18T00:38:53;98624.72;;;6.25;82.99
66880;BME280;53789;51.392;10.234;2023-02-18T00:39:13;98620.06;;;6.25;82.55
66880;BME280;53789;51.392;10.234;2023-02-18T00:39:34;98622.53;;;6.27;83.24
66880;BME280;53789;51.392;10.234;2023-02-18T00:39:54;98628.00;;;6.27;83.04
66880;BME280;53789;51.392;10.234;2023-02-18T00:40:14;98619.78;;;6.27;82.79
66880;BME280;53789;51.392;10.234;2023-02-18T00:40:39;98623.63;;;6.26;82.41
66880;BME280;53789;51.392;10.234;2023-02-18T00:41:00;98618.19;;;6.26;82.77
66880;BME280;53789;51.392;10.234;2023-02-18T00:41:23;98614.34;;;6.27;82.38
66880;BME280;53789;51.392;10.234;2023-02-18T00:41:43;98614.34;;;6.27;82.75
66880;BME280;53789;51.392;10.234;2023-02-18T00:42:04;98622.53;;;6.27;83.07
66880;BME280;53789;51.392;10.234;2023-02-18T00:42:24;98619.78;;;6.27;82.77
66880;BME280;53789;51.392;10.234;2023-02-18T00:42:44;98619.00;;;6.26;82.37
66880;BME280;53789;51.392;10.234;2023-02-18T00:43:05;98622.53;;;6.27;82.46
66880;BME280;53789;51.392;10.234;2023-02-18T00:43:26;98613.53;;;6.26;82.63
66880;BME280;53789;51.392;10.234;2023-02-18T00:43:47;98619.78;;;6.27;83.00
66880;BME280;53789;51.392;10.234;2023-02-18T00:44:08;98619.78;;;6.27;82.79
66880;BME280;53789;51.392;10.234;2023-02-18T00:44:28;98620.63;;;6.27;82.76
66880;BME280;53789;51.392;10.234;2023-02-18T00:44:49;98621.44;;;6.28;82.14
66880;BME280;53789;51.392;10.234;2023-02-18T00:45:09;98620.63;;;6.27;82.51
66880;BME280;53789;51.392;10.234;2023-02-18T00:45:29;98613.25;;;6.28;82.51
66880;BME280;53789;51.392;10.234;2023-02-18T00:45:50;98619.53;;;6.28;83.03
66880;BME280;53789;51.392;10.234;2023-02-18T00:46:11;98623.09;;;6.29;82.87
66880;BME280;53789;51.392;10.234;2023-02-18T00:46:31;98628.56;;;6.29;82.67
66880;BME280;53789;51.392;10.234;2023-02-18T00:46:52;98619.53;;;6.28;82.07
66880;BME280;53789;51.392;10.234;2023-02-18T00:47:12;98621.44;;;6.28;82.63
66880;BME280;53789;51.392;10.234;2023-02-18T00:47:32;98630.19;;;6.30;83.15
66880;BME280;53789;51.392;10.234;2023-02-18T00:47:53;98625.84;;;6.29;82.27
66880;BME280;53789;51.392;10.234;2023-02-18T00:48:13;98631.03;;;6.30;82.48
66880;BME280;53789;51.392;10.234;2023-02-18T00:48:34;98630.19;;;6.30;82.64
66880;BME280;53789;51.392;10.234;2023-02-18T00:48:55;98624.72;;;6.30;82.99
66880;BME280;53789;51.392;10.234;2023-02-18T00:49:16;98619.25;;;6.30;82.63
66880;BME280;53789;51.392;10.234;2023-02-18T00:49:36;98620.91;;;6.31;82.40
66880;BME280;53789;51.392;10.234;2023-02-18T00:49:57;98620.09;;;6.30;82.91
66880;BME280;53789;51.392;10.234;2023-02-18T00:50:17;98626.38;;;6.31;82.60
66880;BME280;53789;51.392;10.234;2023-02-18T00:50:37;98624.19;;;6.28;82.09
66880;BME280;53789;51.392;10.234;2023-02-18T00:50:58;98622.25;;;6.28;82.02
66880;BME280;53789;51.392;10.234;2023-02-18T00:51:19;98623.09;;;6.29;82.42
66880;BME280;53789;51.392;10.234;2023-02-18T00:51:39;98620.38;;;6.29;81.93
66880;BME280;53789;51.392;10.234;2023-02-18T00:51:59;98620.38;;;6.29;82.02
66880;BME280;53789;51.392;10.234;2023-02-18T00:52:20;98618.44;;;6.29;82.24
66880;BME280;53789;51.392;10.234;2023-02-18T00:52:40;98627.44;;;6.30;81.84
66880;BME280;53789;51.392;10.234;2023-02-18T00:53:00;98623.09;;;6.29;82.10
66880;BME280;53789;51.392;10.234;2023-02-18T00:53:21;98623.91;;;6.29;82.40
66880;BME280;53789;51.392;10.234;2023-02-18T00:53:41;98615.72;;;6.29;81.77
66880;BME280;53789;51.392;10.234;2023-02-18T00:54:01;98616.78;;;6.28;81.50
66880;BME280;53789;51.392;10.234;2023-02-18T00:54:22;98615.97;;;6.28;82.47
66880;BME280;53789;51.392;10.234;2023-02-18T00:54:42;98621.19;;;6.29;81.72
66880;BME280;53789;51.392;10.234;2023-02-18T00:55:02;98619.25;;;6.30;82.40
66880;BME280;53789;51.392;10.234;2023-02-18T00:55:23;98615.97;;;6.28;81.81
66880;BME280;53789;51.392;10.234;2023-02-18T00:55:44;98620.09;;;6.30;82.30
66880;BME280;53789;51.392;10.234;2023-02-18T00:56:06;98611.06;;;6.30;82.69
66880;BME280;53789;51.392;10.234;2023-02-18T00:56:26;98609.44;;;6.29;82.35
66880;BME280;53789;51.392;10.234;2023-02-18T00:56:47;98613.78;;;6.30;81.70
66880;BME280;53789;51.392;10.234;2023-02-18T00:57:07;98619.25;;;6.30;82.43
66880;BME280;53789;51.392;10.234;2023-02-18T00:57:27;98611.91;;;6.30;81.98
66880;BME280;53789;51.392;10.234;2023-02-18T00:57:48;98615.44;;;6.31;82.29
66880;BME280;53789;51.392;10.234;2023-02-18T00:58:08;98615.44;;;6.31;82.06
66880;BME280;53789;51.392;10.234;2023-02-18T00:58:29;98619.00;;;6.31;81.73
66880;BME280;53789;51.392;10.234;2023-02-18T00:58:51;98618.19;;;6.31;82.34
66880;BME280;53789;51.392;10.234;2023-02-18T00:59:11;98609.97;;;6.31;82.58
66880;BME280;53789;51.392;10.234;2023-02-18T00:59:31;98610.25;;;6.29;81.59
66880;BME280;53789;51.392;10.234;2023-02-18T00:59:52;98608.31;;;6.30;82.30
66880;BME280;53789;51.392;10.234;2023-02-18T01:00:12;98614.63;;;6.30;81.79
66880;BME280;53789;51.392;10.234;2023-02-18T01:00:33;98615.44;;;6.31;82.48
66880;BME280;53789;51.392;10.234;2023-02-18T01:00:54;98618.19;;;6.31;81.96
66880;BME280;53789;51.392;10.234;2023-02-18T01:01:15;98611.06;;;6.30;81.77
66880;BME280;53789;51.392;10.234;2023-02-18T01:01:35;98614.63;;;6.30;81.70
66880;BME280;53789;51.392;10.234;2023-02-18T01:01:55;98608.31;;;6.30;82.07
66880;BME280;53789;51.392;10.234;2023-02-18T01:02:15;98612.72;;;6.31;82.33
66880;BME280;53789;51.392;10.234;2023-02-18T01:02:36;98613.78;;;6.30;81.75
66880;BME280;53789;51.392;10.234;2023-02-18T01:02:56;98600.13;;;6.30;81.67
66880;BME280;53789;51.392;10.234;2023-02-18T01:03:17;98609.16;;;6.30;82.21
66880;BME280;53789;51.392;10.234;2023-02-18T01:03:39;98608.09;;;6.31;81.77
66880;BME280;53789;51.392;10.234;2023-02-18T01:04:00;98607.25;;;6.31;82.72
66880;BME280;53789;51.392;10.234;2023-02-18T01:04:20;98610.81;;;6.31;81.66
66880;BME280;53789;51.392;10.234;2023-02-18T01:04:40;98616.28;;;6.31;81.89
66880;BME280;53789;51.392;10.234;2023-02-18T01:05:01;98599.91;;;6.31;82.67
66880;BME280;53789;51.392;10.234;2023-02-18T01:05:21;98599.91;;;6.31;81.76
66880;BME280;53789;51.392;10.234;2023-02-18T01:05:42;98605.59;;;6.30;82.56
66880;BME280;53789;51.392;10.234;2023-02-18T01:06:03;98598.50;;;6.29;81.98
66880;BME280;53789;51.392;10.234;2023-02-18T01:06:24;98609.16;;;6.30;82.06
66880;BME280;53789;51.392;10.234;2023-02-18T01:06:44;98609.44;;;6.29;81.87
66880;BME280;53789;51.392;10.234;2023-02-18T01:07:05;98608.31;;;6.30;82.30
66880;BME280;53789;51.392;10.234;2023-02-18T01:07:25;98608.31;;;6.30;82.55
66880;BME280;53789;51.392;10.234;2023-02-18T01:07:46;98609.16;;;6.30;82.40
66880;BME280;53789;51.392;10.234;2023-02-18T01:08:07;98606.72;;;6.29;82.73
66880;BME280;53789;51.392;10.234;2023-02-18T01:08:28;98609.44;;;6.29;82.88
66880;BME280;53789;51.392;10.234;2023-02-18T01:08:48;98607.53;;;6.29;83.07
66880;BME280;53789;51.392;10.234;2023-02-18T01:09:09;98611.06;;;6.30;82.62
66880;BME280;53789;51.392;10.234;2023-02-18T01:09:29;98608.31;;;6.30;82.98
66880;BME280;53789;51.392;10.234;2023-02-18T01:09:50;98612.16;;;6.29;82.91
66880;BME280;53789;51.392;10.234;2023-02-18T01:10:10;98617.06;;;6.27;82.62
66880;BME280;53789;51.392;10.234;2023-02-18T01:10:31;98613.53;;;6.26;82.29
66880;BME280;53789;51.392;10.234;2023-02-18T01:10:54;98616.25;;;6.26;82.43
66880;BME280;53789;51.392;10.234;2023-02-18T01:11:15;98608.06;;;6.26;82.50
66880;BME280;53789;51.392;10.234;2023-02-18T01:11:35;98611.59;;;6.27;83.02
66880;BME280;53789;51.392;10.234;2023-02-18T01:11:56;98613.53;;;6.26;83.26
66880;BME280;53789;51.392;10.234;2023-02-18T01:12:16;98611.59;;;6.27;82.90
66880;BME280;53789;51.392;10.234;2023-02-18T01:12:37;98615.16;;;6.27;82.89
66880;BME280;53789;51.392;10.234;2023-02-18T01:12:57;98614.06;;;6.28;83.01
66880;BME280;53789;51.392;10.234;2023-02-18T01:13:17;98614.34;;;6.27;83.02
66880;BME280;53789;51.392;10.234;2023-02-18T01:13:39;98616.25;;;6.26;83.30
66880;BME280;53789;51.392;10.234;2023-02-18T01:14:00;98619.00;;;6.26;82.81
66880;BME280;53789;51.392;10.234;2023-02-18T01:14:20;98619.78;;;6.27;83.03
66880;BME280;53789;51.392;10.234;2023-02-18T01:14:41;98612.72;;;6.26;82.95
66880;BME280;53789;51.392;10.234;2023-02-18T01:15:04;98612.44;;;6.27;83.25
66880;BME280;53789;51.392;10.234;2023-02-18T01:15:25;98607.25;;;6.26;83.63
66880;BME280;53789;51.392;10.234;2023-02-18T01:15:46;98605.31;;;6.26;83.61
66880;BME280;53789;51.392;10.234;2023-02-18T01:16:08;98607.25;;;6.26;83.16
66880;BME280;53789;51.392;10.234;2023-02-18T01:16:29;98607.25;;;6.26;83.67
66880;BME280;53789;51.392;10.234;2023-02-18T01:16:49;98603.69;;;6.25;82.98
66880;BME280;53789;51.392;10.234;2023-02-18T01:17:09;98606.13;;;6.27;83.18
66880;BME280;53789;51.392;10.234;2023-02-18T01:17:30;98607.25;;;6.26;83.62
66880;BME280;53789;51.392;10.234;2023-02-18T01:17:50;98611.06;;;6.25;83.12
66880;BME280;53789;51.392;10.234;2023-02-18T01:18:11;98606.41;;;6.25;83.52
66880;BME280;53789;51.392;10.234;2023-02-18T01:18:31;98609.97;;;6.26;83.66
66880;BME280;53789;51.392;10.234;2023-02-18T01:18:52;98613.78;;;6.25;83.22
66880;BME280;53789;51.392;10.234;2023-02-18T01:19:12;98616.53;;;6.25;83.93
66880;BME280;53789;51.392;10.234;2023-02-18T01:19:32;98612.97;;;6.24;84.13
66880;BME280;53789;51.392;10.234;2023-02-18T01:19:53;98616.53;;;6.25;84.14
66880;BME280;53789;51.392;10.234;2023-02-18T01:20:15;98606.41;;;6.25;84.24
66880;BME280;53789;51.392;10.234;2023-02-18T01:20:38;98608.88;;;6.27;84.50
66880;BME280;53789;51.392;10.234;2023-02-18T01:20:59;98609.13;;;6.25;84.31
66880;BME280;53789;51.392;10.234;2023-02-18T01:21:19;98617.34;;;6.25;84.41
66880;BME280;53789;51.392;10.234;2023-02-18T01:21:40;98613.78;;;6.25;84.12
66880;BME280;53789;51.392;10.234;2023-02-18T01:22:00;98614.59;;;6.25;84.21
66880;BME280;53789;51.392;10.234;2023-02-18T01:22:20;98602.88;;;6.25;84.62
66880;BME280;53789;51.392;10.234;2023-02-18T01:22:41;98610.25;;;6.24;84.17
66880;BME280;53789;51.392;10.234;2023-02-18T01:23:02;98605.59;;;6.25;84.61
66880;BME280;53789;51.392;10.234;2023-02-18T01:23:22;98611.88;;;6.25;84.84
66880;BME280;53789;51.392;10.234;2023-02-18T01:23:43;98611.88;;;6.25;84.84
66880;BME280;53789;51.392;10.234;2023-02-18T01:24:04;98619.25;;;6.25;84.41
66880;BME280;53789;51.392;10.234;2023-02-18T01:24:24;98606.94;;;6.22;84.60
66880;BME280;53789;51.392;10.234;2023-02-18T01:24:45;98620.59;;;6.22;84.86
66880;BME280;53789;51.392;10.234;2023-02-18T01:25:06;98611.59;;;6.21;84.65
66880;BME280;53789;51.392;10.234;2023-02-18T01:25:27;98609.94;;;6.20;85.08
66880;BME280;53789;51.392;10.234;2023-02-18T01:25:47;98615.41;;;6.20;84.95
66880;BME280;53789;51.392;10.234;2023-02-18T01:26:09;98616.25;;;6.21;85.51
66880;BME280;53789;51.392;10.234;2023-02-18T01:26:29;98610.78;;;6.21;84.86
66880;BME280;53789;51.392;10.234;2023-02-18T01:26:50;98606.94;;;6.22;85.73
66880;BME280;53789;51.392;10.234;2023-02-18T01:27:10;98609.94;;;6.20;85.14
66880;BME280;53789;51.392;10.234;2023-02-18T01:27:31;98611.59;;;6.21;85.83
66880;BME280;53789;51.392;10.234;2023-02-18T01:27:51;98612.41;;;6.22;86.02
66880;BME280;53789;51.392;10.234;2023-02-18T01:28:13;98612.41;;;6.22;85.69
66880;BME280;53789;51.392;10.234;2023-02-18T01:28:34;98606.41;;;6.20;85.97
66880;BME280;53789;51.392;10.234;2023-02-18T01:28:54;98608.88;;;6.21;85.85
66880;BME280;53789;51.392;10.234;2023-02-18T01:29:14;98602.59;;;6.21;85.98
66880;BME280;53789;51.392;10.234;2023-02-18T01:29:35;98610.78;;;6.21;85.89
66880;BME280;53789;51.392;10.234;2023-02-18T01:29:55;98612.41;;;6.22;86.49
66880;BME280;53789;51.392;10.234;2023-02-18T01:30:17;98610.53;;;6.23;86.35
66880;BME280;53789;51.392;10.234;2023-02-18T01:30:38;98608.59;;;6.23;86.47
66880;BME280;53789;51.392;10.234;2023-02-18T01:31:07;98609.41;;;6.24;87.10
66880;BME280;53789;51.392;10.234;2023-02-18T01:31:27;98605.88;;;6.23;87.25
66880;BME280;53789;51.392;10.234;2023-02-18T01:31:47;98606.69;;;6.24;87.26
66880;BME280;53789;51.392;10.234;2023-02-18T01:32:08;98610.25;;;6.24;86.59
66880;BME280;53789;51.392;10.234;2023-02-18T01:32:29;98608.34;;;6.25;86.80
66880;BME280;53789;51.392;10.234;2023-02-18T01:32:49;98602.06;;;6.24;86.62
66880;BME280;53789;51.392;10.234;2023-02-18T01:33:10;98604.78;;;6.24;86.71
66880;BME280;53789;51.392;10.234;2023-02-18T01:33:30;98602.88;;;6.25;87.54
66880;BME280;53789;51.392;10.234;2023-02-18T01:33:51;98602.59;;;6.26;87.34
66880;BME280;53789;51.392;10.234;2023-02-18T01:34:11;98610.53;;;6.28;87.42
66880;BME280;53789;51.392;10.234;2023-02-18T01:34:32;98605.06;;;6.28;86.88
66880;BME280;53789;51.392;10.234;2023-02-18T01:34:53;98606.72;;;6.29;86.88
66880;BME280;53789;51.392;10.234;2023-02-18T01:35:16;98609.44;;;6.29;87.55
66880;BME280;53789;51.392;10.234;2023-02-18T01:35:40;98612.72;;;6.31;87.73
66880;BME280;53789;51.392;10.234;2023-02-18T01:36:01;98615.44;;;6.31;86.67
66880;BME280;53789;51.392;10.234;2023-02-18T01:36:21;98611.63;;;6.32;87.04
66880;BME280;53789;51.392;10.234;2023-02-18T01:36:41;98608.91;;;6.32;86.73
66880;BME280;53789;51.392;10.234;2023-02-18T01:37:02;98616.81;;;6.33;87.26
66880;BME280;53789;51.392;10.234;2023-02-18T01:37:22;98607.81;;;6.33;86.81
66880;BME280;53789;51.392;10.234;2023-02-18T01:37:43;98601.25;;;6.34;86.87
66880;BME280;53789;51.392;10.234;2023-02-18T01:38:03;98607.53;;;6.34;87.27
66880;BME280;53789;51.392;10.234;2023-02-18T01:38:23;98600.16;;;6.35;87.09
66880;BME280;53789;51.392;10.234;2023-02-18T01:38:43;98598.25;;;6.35;87.59
66880;BME280;53789;51.392;10.234;2023-02-18T01:39:05;98597.16;;;6.36;87.58
66880;BME280;53789;51.392;10.234;2023-02-18T01:39:25;98602.63;;;6.36;86.72
66880;BME280;53789;51.392;10.234;2023-02-18T01:39:45;98606.16;;;6.37;87.54
66880;BME280;53789;51.392;10.234;2023-02-18T01:40:09;98602.34;;;6.38;86.66
66880;BME280;53789;51.392;10.234;2023-02-18T01:40:29;98599.63;;;6.38;87.49
66880;BME280;53789;51.392;10.234;2023-02-18T01:40:52;98594.69;;;6.40;87.65
66880;BME280;53789;51.392;10.234;2023-02-18T01:41:12;98607.28;;;6.41;87.18
66880;BME280;53789;51.392;10.234;2023-02-18T01:41:32;98605.34;;;6.42;87.52
66880;BME280;53789;51.392;10.234;2023-02-18T01:41:53;98601.53;;;6.43;86.87
66880;BME280;53789;51.392;10.234;2023-02-18T01:42:26;98606.19;;;6.42;87.13
66880;BME280;53789;51.392;10.234;2023-02-18T01:42:47;98598.00;;;6.42;87.13
66880;BME280;53789;51.392;10.234;2023-02-18T01:43:11;98607.84;;;6.43;87.46
66880;BME280;53789;51.392;10.234;2023-02-18T01:43:32;98604.00;;;6.44;87.53
66880;BME280;53789;51.392;10.234;2023-02-18T01:44:22;98598.53;;;6.44;87.22
66880;BME280;53789;51.392;10.234;2023-02-18T01:44:43;98610.31;;;6.45;87.17
66880;BME280;53789;51.392;10.234;2023-02-18T01:46:20;98600.44;;;6.44;87.73
66880;BME280;53789;51.392;10.234;2023-02-18T01:46:40;98605.09;;;6.43;87.52
66880;BME280;53789;51.392;10.234;2023-02-18T01:47:01;98607.56;;;6.45;87.86
66880;BME280;53789;51.392;10.234;2023-02-18T01:47:21;98613.03;;;6.45;87.46
66880;BME280;53789;51.392;10.234;2023-02-18T01:47:41;98608.38;;;6.45;87.41
66880;BME280;53789;51.392;10.234;2023-02-18T01:48:11;98605.66;;;6.45;87.78
66880;BME280;53789;51.392;10.234;2023-02-18T01:48:43;98608.91;;;6.47;87.51
66880;BME280;53789;51.392;10.234;2023-02-18T01:49:06;98608.91;;;6.47;86.91
66880;BME280;53789;51.392;10.234;2023-02-18T01:49:31;98609.75;;;6.48;87.95
66880;BME280;53789;51.392;10.234;2023-02-18T01:49:53;98616.03;;;6.48;87.46
66880;BME280;53789;51.392;10.234;2023-02-18T01:50:13;98611.38;;;6.49;87.71
66880;BME280;53789;51.392;10.234;2023-02-18T01:50:38;98616.84;;;6.49;88.00
66880;BME280;53789;51.392;10.234;2023-02-18T01:51:35;98620.16;;;6.51;87.78
66880;BME280;53789;51.392;10.234;2023-02-18T01:52:01;98611.69;;;6.52;88.14
66880;BME280;53789;51.392;10.234;2023-02-18T01:52:26;98608.09;;;6.52;87.63
66880;BME280;53789;51.392;10.234;2023-02-18T01:52:46;98612.47;;;6.53;87.87
66880;BME280;53789;51.392;10.234;2023-02-18T01:53:07;98607.84;;;6.53;87.53
66880;BME280;53789;51.392;10.234;2023-02-18T01:53:55;98615.78;;;6.55;87.28
66880;BME280;53789;51.392;10.234;2023-02-18T01:54:49;98620.97;;;6.56;87.76